Time;durP1;ratioP1;P1;durP2;ratioP2;P2;SDS_P1;SDS_P2;PMS_P1;PMS_P2;Temp;Humidity;BMP_temperature;BMP_pressure;BME280_temperature;BME280_humidity;BME280_pressure;Samples;Min_cycle;Max_cycle;Signal;HPM_P1;HPM_P2
2021/04/24 00:00:22;;;;;;;21.15;15.25;;;;;;;4.11;76.83;94941.08;1766082;81;21051;-56
2021/04/24 00:02:50;;;;;;;19.90;15.15;;;;;;;3.99;77.00;94930.09;1766118;81;21066;-56
2021/04/24 00:05:28;;;;;;;25.57;17.02;;;;;;;3.96;77.58;94924.09;1766093;81;21206;-56
2021/04/24 00:07:58;;;;;;;24.07;14.87;;;;;;;3.96;77.42;94926.03;1766367;81;21134;-56
2021/04/24 00:10:27;;;;;;;20.57;15.15;;;;;;;3.95;77.53;94925.27;1766334;81;21141;-55
2021/04/24 00:12:54;;;;;;;20.40;14.58;;;;;;;3.97;77.56;94931.09;1766245;81;21193;-58
2021/04/24 00:15:23;;;;;;;16.35;11.60;;;;;;;4.04;77.64;94925.58;1766246;81;21043;-56
2021/04/24 00:17:50;;;;;;;18.35;12.88;;;;;;;4.06;77.33;94920.50;1766215;81;21203;-56
2021/04/24 00:20:22;;;;;;;32.48;19.12;;;;;;;3.98;77.23;94916.87;1766199;81;21093;-55
2021/04/24 00:22:52;;;;;;;36.35;22.55;;;;;;;3.90;77.41;94918.88;1766347;81;21499;-56
2021/04/24 00:25:20;;;;;;;41.13;26.05;;;;;;;3.83;77.53;94913.50;1766304;81;21476;-55
2021/04/24 00:27:48;;;;;;;53.13;28.95;;;;;;;3.78;77.56;94912.56;1766257;81;21146;-55
2021/04/24 00:30:17;;;;;;;42.10;25.70;;;;;;;3.79;77.97;94920.92;1766147;80;21205;-55
2021/04/24 00:32:46;;;;;;;30.97;19.37;;;;;;;3.89;78.02;94916.57;1766264;81;21693;-55
2021/04/24 00:35:17;;;;;;;21.37;17.07;;;;;;;3.99;77.88;94919.20;1766221;81;21079;-56
2021/04/24 00:37:46;;;;;;;21.80;15.23;;;;;;;4.00;77.61;94922.11;1766244;81;21157;-55
2021/04/24 00:40:15;;;;;;;38.73;20.40;;;;;;;3.97;77.63;94913.39;1766215;81;21074;-55
2021/04/24 00:42:43;;;;;;;43.98;21.00;;;;;;;3.99;77.76;94913.77;1766292;81;22107;-56
2021/04/24 00:45:13;;;;;;;27.87;17.40;;;;;;;4.00;77.62;94917.25;1766066;80;21618;-56
2021/04/24 00:47:41;;;;;;;26.42;15.75;;;;;;;4.02;77.95;94918.41;1766250;81;21091;-56
2021/04/24 00:50:11;;;;;;;18.98;14.15;;;;;;;4.10;77.57;94918.55;1766226;81;21137;-55
2021/04/24 00:52:39;;;;;;;21.07;14.20;;;;;;;4.10;77.35;94919.13;1766241;81;21149;-56
2021/04/24 00:55:09;;;;;;;23.73;15.55;;;;;;;4.06;77.62;94912.94;1766188;81;21205;-57
2021/04/24 00:57:37;;;;;;;23.73;17.70;;;;;;;4.12;77.73;94914.05;1766151;81;21157;-55
2021/04/24 01:00:07;;;;;;;24.57;17.82;;;;;;;4.21;77.63;94908.92;1766192;81;21205;-56
2021/04/24 01:02:35;;;;;;;27.85;17.48;;;;;;;4.29;77.25;94908.47;1766279;81;21661;-56
2021/04/24 01:05:08;;;;;;;23.18;15.43;;;;;;;4.35;76.98;94905.48;1766194;81;21078;-56
2021/04/24 01:07:35;;;;;;;;;;;;;;;4.42;76.65;94902.68;1768825;81;21370;-55
2021/04/24 01:10:08;;;;;;;19.75;15.05;;;;;;;4.46;76.75;94907.50;1766132;81;20218;-56
2021/04/24 01:12:37;;;;;;;23.60;16.17;;;;;;;4.53;76.44;94908.81;1766359;81;21198;-56
2021/04/24 01:15:07;;;;;;;23.50;16.20;;;;;;;4.53;76.02;94902.58;1766233;81;21145;-55
2021/04/24 01:17:34;;;;;;;22.70;15.18;;;;;;;4.47;75.91;94906.34;1766231;81;21642;-56
2021/04/24 01:20:06;;;;;;;23.40;14.43;;;;;;;4.37;75.72;94905.84;1766216;81;21208;-55
2021/04/24 01:22:34;;;;;;;24.87;17.75;;;;;;;4.26;75.80;94902.44;1766197;81;21526;-56
2021/04/24 01:25:06;;;;;;;22.67;14.45;;;;;;;4.15;75.94;94907.80;1736672;81;21087;-56
2021/04/24 01:27:34;;;;;;;28.50;19.12;;;;;;;4.10;76.08;94908.23;1766213;81;21081;-54
2021/04/24 01:30:04;;;;;;;35.83;23.02;;;;;;;4.00;76.43;94900.92;1766176;81;21050;-56
2021/04/24 01:32:32;;;;;;;35.20;21.87;;;;;;;3.97;76.85;94897.06;1766225;81;21940;-56
2021/04/24 01:35:01;;;;;;;35.70;21.68;;;;;;;3.98;77.12;94902.70;1766050;81;21067;-57
2021/04/24 01:37:28;;;;;;;28.55;18.52;;;;;;;3.99;77.05;94906.96;1766173;81;21066;-57
2021/04/24 01:39:56;;;;;;;30.90;18.45;;;;;;;4.02;77.18;94907.52;1766099;81;21189;-56
2021/04/24 01:42:24;;;;;;;27.07;18.92;;;;;;;3.99;77.04;94901.52;1766179;81;21098;-56
2021/04/24 01:44:52;;;;;;;27.30;19.30;;;;;;;4.00;77.11;94907.14;1766134;81;21488;-56
2021/04/24 01:47:20;;;;;;;31.17;20.17;;;;;;;4.05;77.16;94909.43;1758894;80;21101;-57
2021/04/24 01:49:48;;;;;;;29.90;19.23;;;;;;;4.15;77.08;94907.80;1758054;81;21094;-56
2021/04/24 01:52:16;;;;;;;29.80;18.05;;;;;;;4.21;76.88;94909.69;1762647;81;21153;-55
2021/04/24 01:54:44;;;;;;;23.02;16.07;;;;;;;4.30;76.79;94907.86;1763569;81;21078;-56
2021/04/24 01:57:12;;;;;;;23.02;15.15;;;;;;;4.37;76.36;94906.42;1763538;81;22151;-56
2021/04/24 01:59:40;;;;;;;27.35;17.82;;;;;;;4.35;76.02;94901.39;1763521;81;21081;-55
2021/04/24 02:02:08;;;;;;;20.48;13.22;;;;;;;4.36;76.05;94901.58;1733681;82;21147;-55
2021/04/24 02:04:36;;;;;;;17.80;13.45;;;;;;;4.43;75.91;94901.50;1762956;81;21138;-57
2021/04/24 02:07:04;;;;;;;20.62;13.38;;;;;;;4.45;75.63;94910.04;1733706;82;21067;-56
2021/04/24 02:09:32;;;;;;;17.23;13.10;;;;;;;4.43;75.56;94907.55;1763201;80;21204;-57
2021/04/24 02:12:06;;;;;;;16.60;12.37;;;;;;;4.37;75.49;94909.94;1733836;82;21135;-56
2021/04/24 02:14:45;;;;;;;18.25;12.75;;;;;;;4.29;75.58;94907.67;1763119;81;21075;-55
2021/04/24 02:17:15;;;;;;;16.90;13.28;;;;;;;4.24;75.95;94908.87;1763082;81;21070;-56
2021/04/24 02:19:46;;;;;;;24.43;15.75;;;;;;;4.27;75.84;94908.07;1762774;81;21075;-55
2021/04/24 02:22:14;;;;;;;26.95;15.38;;;;;;;4.29;75.70;94900.30;1733938;82;21319;-56
2021/04/24 02:24:46;;;;;;;27.42;17.20;;;;;;;4.25;75.70;94899.53;1763053;81;21087;-56
2021/04/24 02:27:13;;;;;;;26.00;16.60;;;;;;;4.18;75.81;94911.86;1733866;82;21194;-55
2021/04/24 02:29:43;;;;;;;24.05;15.98;;;;;;;4.16;76.20;94903.32;1763141;81;21094;-56
2021/04/24 02:32:13;;;;;;;23.62;15.65;;;;;;;4.17;76.28;94908.16;1733934;82;21095;-55
2021/04/24 02:34:44;;;;;;;20.50;14.58;;;;;;;4.21;76.14;94908.92;1763185;81;21205;-57
2021/04/24 02:37:14;;;;;;;21.55;12.85;;;;;;;4.17;75.99;94909.52;1733844;82;21110;-55
2021/04/24 02:39:44;;;;;;;17.52;11.88;;;;;;;4.12;76.01;94903.95;1763122;81;21154;-55
2021/04/24 02:42:16;;;;;;;29.07;16.70;;;;;;;4.03;76.15;94902.25;1733880;82;21099;-56
2021/04/24 02:44:44;;;;;;;23.85;15.40;;;;;;;3.96;76.30;94907.77;1763303;81;21074;-57
2021/04/24 02:47:12;;;;;;;25.85;18.57;;;;;;;3.86;76.59;94911.33;1744931;81;21213;-58
2021/04/24 02:49:40;;;;;;;49.23;31.85;;;;;;;3.83;76.91;94912.14;1763616;81;21516;-55
2021/04/24 02:52:09;;;;;;;45.85;30.25;;;;;;;3.86;77.16;94912.69;1750743;82;21127;-56
2021/04/24 02:54:37;;;;;;;19.98;12.80;;;;;;;3.90;77.12;94909.35;1763901;81;21137;-55
2021/04/24 02:57:05;;;;;;;15.45;11.73;;;;;;;3.88;76.92;94919.11;1763962;81;21153;-55
2021/04/24 02:59:34;;;;;;;17.65;12.63;;;;;;;3.83;76.97;94916.81;1763962;81;21384;-55
2021/04/24 03:02:02;;;;;;;15.63;11.70;;;;;;;3.83;77.10;94916.22;1763895;81;21075;-55
2021/04/24 03:04:30;;;;;;;17.05;11.73;;;;;;;3.86;77.20;94914.66;1763836;81;21137;-55
2021/04/24 03:06:58;;;;;;;17.60;13.50;;;;;;;3.91;77.38;94922.38;1763928;81;21054;-56
2021/04/24 03:09:26;;;;;;;17.65;13.95;;;;;;;3.98;77.35;94925.83;1763955;81;21126;-56
2021/04/24 03:11:55;;;;;;;20.48;14.68;;;;;;;4.02;77.10;94923.84;1763928;81;21205;-56
2021/04/24 03:14:22;;;;;;;18.10;14.20;;;;;;;4.08;77.08;94929.04;1763852;81;21066;-56
2021/04/24 03:16:50;;;;;;;16.82;13.80;;;;;;;4.15;76.73;94926.28;1763932;81;21079;-56
2021/04/24 03:19:19;;;;;;;18.25;13.40;;;;;;;4.20;76.52;94924.48;1763903;81;21130;-55
2021/04/24 03:21:47;;;;;;;17.77;14.05;;;;;;;4.26;76.44;94929.67;1763985;81;21571;-55
2021/04/24 03:24:14;;;;;;;15.15;12.55;;;;;;;4.28;76.24;94926.55;1763877;81;21334;-55
2021/04/24 03:26:42;;;;;;;16.05;12.15;;;;;;;4.26;75.93;94932.99;1763867;81;21066;-56
2021/04/24 03:29:10;;;;;;;13.45;10.72;;;;;;;4.15;75.80;94932.30;1763869;81;21071;-58
2021/04/24 03:31:39;;;;;;;17.12;11.60;;;;;;;4.07;75.86;94926.13;1763851;81;21158;-56
2021/04/24 03:34:06;;;;;;;12.78;10.30;;;;;;;4.06;76.06;94934.11;1763870;81;21580;-56
2021/04/24 03:36:34;;;;;;;16.40;9.55;;;;;;;4.07;75.78;94934.30;1763923;81;21425;-56
2021/04/24 03:39:04;;;;;;;14.00;10.03;;;;;;;4.01;75.74;94941.36;1763834;81;21110;-55
2021/04/24 03:41:32;;;;;;;12.63;10.38;;;;;;;3.95;76.10;94936.16;1738040;81;21086;-55
2021/04/24 03:43:59;;;;;;;14.23;10.28;;;;;;;3.99;76.27;94937.47;1763963;81;21122;-56
2021/04/24 03:46:27;;;;;;;12.10;9.45;;;;;;;4.04;76.09;94937.06;1763585;79;21092;-56
2021/04/24 03:48:55;;;;;;;13.25;9.18;;;;;;;4.05;75.84;94935.29;1763131;81;21356;-55
2021/04/24 03:51:24;;;;;;;12.33;11.03;;;;;;;4.03;75.90;94942.33;1763065;81;21114;-56
2021/04/24 03:53:51;;;;;;;17.60;12.25;;;;;;;4.08;76.03;94947.33;1763103;81;21059;-57
2021/04/24 03:56:20;;;;;;;12.15;10.43;;;;;;;4.14;75.71;94950.59;1763098;81;21079;-57
2021/04/24 03:58:48;;;;;;;11.57;10.30;;;;;;;4.16;75.55;94956.98;1763065;81;21130;-57
2021/04/24 04:01:16;;;;;;;12.00;10.43;;;;;;;4.17;75.71;94959.31;1763098;81;21214;-55
2021/04/24 04:03:44;;;;;;;12.03;10.75;;;;;;;4.24;75.51;94956.52;1763134;81;21082;-56
2021/04/24 04:06:12;;;;;;;13.20;11.43;;;;;;;4.30;75.42;94967.19;1763073;81;21088;-56
2021/04/24 04:08:41;;;;;;;23.60;12.23;;;;;;;4.36;75.34;94968.30;1763096;81;21062;-57
2021/04/24 04:11:08;;;;;;;18.73;13.80;;;;;;;4.36;75.39;94976.47;1763040;81;21098;-57
2021/04/24 04:13:36;;;;;;;18.25;11.40;;;;;;;4.36;75.50;94979.20;1763080;81;21372;-56
2021/04/24 04:16:04;;;;;;;29.40;17.12;;;;;;;4.37;75.26;94978.59;1763030;81;21085;-55
2021/04/24 04:18:36;;;;;;;38.42;23.75;;;;;;;4.38;75.51;94978.80;1763097;81;21050;-56
2021/04/24 04:21:06;;;;;;;58.08;34.00;;;;;;;4.42;75.40;94978.19;1763218;81;21506;-56
2021/04/24 04:23:34;;;;;;;26.82;19.32;;;;;;;4.45;75.42;94983.58;1763214;81;21472;-57
2021/04/24 04:26:02;;;;;;;20.72;15.13;;;;;;;4.41;75.38;94988.28;1763045;81;21153;-56
2021/04/24 04:28:30;;;;;;;28.23;17.42;;;;;;;4.37;75.46;94977.23;1763036;81;21115;-55
2021/04/24 04:30:58;;;;;;;21.55;16.27;;;;;;;4.38;75.55;94977.45;1763061;81;21118;-57
2021/04/24 04:33:26;;;;;;;15.63;12.88;;;;;;;4.45;75.75;94981.45;1763042;81;21150;-56
2021/04/24 04:35:54;;;;;;;18.12;12.53;;;;;;;4.53;75.58;94985.08;1763114;81;21083;-56
2021/04/24 04:38:23;;;;;;;15.80;12.05;;;;;;;4.54;75.59;94978.45;1763025;81;21208;-56
2021/04/24 04:40:51;;;;;;;23.47;13.62;;;;;;;4.56;75.58;94976.09;1763001;80;21097;-57
2021/04/24 04:43:19;;;;;;;34.25;17.42;;;;;;;4.64;75.54;94972.72;1763079;81;21127;-57
2021/04/24 04:45:46;;;;;;;31.65;17.87;;;;;;;4.66;75.34;94983.42;1763015;81;21126;-57
2021/04/24 04:48:14;;;;;;;40.15;21.15;;;;;;;4.70;75.33;94981.42;1762975;79;21087;-55
2021/04/24 04:50:43;;;;;;;42.17;22.60;;;;;;;4.74;75.18;94987.61;1763103;81;21205;-56
2021/04/24 04:53:11;;;;;;;44.38;24.12;;;;;;;4.76;75.24;94984.49;1763169;81;21138;-56
2021/04/24 04:55:39;;;;;;;30.30;19.12;;;;;;;4.89;75.03;94985.52;1763214;81;21098;-56
2021/04/24 04:58:06;;;;;;;21.77;14.70;;;;;;;5.00;74.91;94997.09;1763203;81;21114;-56
2021/04/24 05:00:34;;;;;;;20.77;14.25;;;;;;;5.11;75.02;94991.71;1763240;81;21050;-56
2021/04/24 05:03:02;;;;;;;23.12;15.60;;;;;;;5.26;74.82;94991.74;1763189;81;21366;-56
2021/04/24 05:05:30;;;;;;;32.65;18.32;;;;;;;5.37;74.25;94996.47;1763052;81;21079;-56
2021/04/24 05:07:59;;;;;;;25.97;17.67;;;;;;;5.40;73.93;94989.61;1736004;81;21521;-57
2021/04/24 05:10:27;;;;;;;23.30;17.30;;;;;;;5.50;73.32;94992.03;1707866;84;21150;-58
2021/04/24 05:12:55;;;;;;;24.12;17.57;;;;;;;5.57;72.40;94989.99;1707975;84;21091;-56
2021/04/24 05:15:23;;;;;;;26.50;19.35;;;;;;;5.60;72.03;94987.05;1707976;84;21263;-57
2021/04/24 05:17:51;;;;;;;37.25;24.15;;;;;;;5.68;71.90;94991.22;1707889;84;21110;-59
2021/04/24 05:20:19;;;;;;;29.75;19.15;;;;;;;5.71;71.86;94985.72;1707888;84;21183;-57
2021/04/24 05:22:47;;;;;;;33.70;22.02;;;;;;;5.78;71.30;94984.28;1707882;84;21150;-56
2021/04/24 05:25:16;;;;;;;29.30;20.57;;;;;;;5.85;70.77;94989.66;1707976;84;21166;-57
2021/04/24 05:27:46;;;;;;;21.90;16.32;;;;;;;5.97;70.25;94993.80;1708129;83;21210;-56
2021/04/24 05:30:16;;;;;;;21.02;15.95;;;;;;;6.08;69.05;94991.66;1708109;84;21142;-56
2021/04/24 05:32:44;;;;;;;21.95;14.87;;;;;;;6.09;67.48;94991.84;1708199;84;21563;-58
2021/04/24 05:35:16;;;;;;;25.40;17.77;;;;;;;6.07;66.69;94995.01;1708099;84;21106;-59
2021/04/24 05:37:44;;;;;;;25.23;17.02;;;;;;;6.10;66.37;94997.48;1708187;83;21177;-57
2021/04/24 05:40:14;;;;;;;25.90;16.90;;;;;;;6.09;65.80;94994.58;1708164;84;22123;-57
2021/04/24 05:42:42;;;;;;;23.83;16.32;;;;;;;6.15;65.35;94999.17;1708063;84;21135;-56
2021/04/24 05:45:14;;;;;;;22.82;14.23;;;;;;;6.26;64.82;94994.91;1708026;84;22357;-56
2021/04/24 05:47:46;;;;;;;25.20;14.60;;;;;;;6.29;64.21;94998.17;1719386;82;21071;-57
2021/04/24 05:50:18;;;;;;;20.68;14.05;;;;;;;6.23;64.27;94997.11;1733518;82;21075;-57
2021/04/24 05:52:48;;;;;;;17.25;13.48;;;;;;;6.29;63.82;94996.81;1732686;82;22189;-56
2021/04/24 05:55:18;;;;;;;17.15;12.53;;;;;;;6.38;63.41;94988.88;1733226;82;21182;-57
2021/04/24 05:57:45;;;;;;;15.78;12.13;;;;;;;6.42;63.21;94989.59;1733261;82;21178;-58
2021/04/24 06:00:18;;;;;;;21.35;13.13;;;;;;;6.45;62.16;94991.49;1733300;81;21087;-57
2021/04/24 06:02:45;;;;;;;24.72;13.88;;;;;;;6.49;61.77;94991.63;1733359;82;21647;-57
2021/04/24 06:05:15;;;;;;;20.32;12.10;;;;;;;6.58;61.93;94991.09;1733325;82;21383;-61
2021/04/24 06:07:43;;;;;;;30.72;13.05;;;;;;;6.68;60.40;94986.06;1702606;82;21548;-58
2021/04/24 06:10:15;;;;;;;15.60;11.00;;;;;;;6.78;59.87;94988.61;1733291;82;21151;-59
2021/04/24 06:12:48;;;;;;;16.40;8.48;;;;;;;6.92;58.11;94983.48;1733368;82;21086;-57
2021/04/24 06:15:19;;;;;;;19.12;9.03;;;;;;;7.02;55.18;94981.92;1746065;82;21215;-57
2021/04/24 06:17:50;;;;;;;12.25;8.53;;;;;;;7.08;54.09;94975.38;1746473;82;21204;-61
2021/04/24 06:20:20;;;;;;;13.70;8.45;;;;;;;7.17;52.57;94975.77;1746200;82;21143;-60
2021/04/24 06:22:48;;;;;;;9.35;7.40;;;;;;;7.24;50.35;94980.34;1746232;82;21088;-58
2021/04/24 06:25:17;;;;;;;11.70;8.95;;;;;;;7.21;48.33;94975.70;1757111;81;21222;-60
2021/04/24 06:27:46;;;;;;;12.20;7.33;;;;;;;7.22;48.20;94984.88;1748909;82;21067;-60
2021/04/24 06:30:16;;;;;;;12.60;8.03;;;;;;;7.30;48.76;94984.91;1748886;82;21212;-59
2021/04/24 06:32:45;;;;;;;10.38;7.75;;;;;;;7.38;48.38;94983.56;1748817;82;21092;-60
2021/04/24 06:35:14;;;;;;;12.15;6.35;;;;;;;7.48;48.36;94979.10;1748880;81;21151;-59
2021/04/24 06:37:42;;;;;;;9.65;6.10;;;;;;;7.54;48.10;94983.64;1748863;82;21087;-58
2021/04/24 06:40:13;;;;;;;11.08;6.08;;;;;;;7.56;47.28;94970.30;1748831;82;21237;-58
2021/04/24 06:42:43;;;;;;;9.20;6.20;;;;;;;7.61;47.57;94969.83;1748925;82;21084;-60
2021/04/24 06:45:12;;;;;;;5.65;4.92;;;;;;;7.73;47.72;94976.02;1748804;81;21489;-60
2021/04/24 06:47:40;;;;;;;8.50;5.70;;;;;;;7.78;44.65;94976.11;1750352;81;21174;-57
2021/04/24 06:50:11;;;;;;;16.80;7.08;;;;;;;7.77;43.62;94968.52;1754502;81;21163;-56
2021/04/24 06:52:38;;;;;;;10.72;6.12;;;;;;;7.80;44.81;94970.98;1754479;81;21135;-56
2021/04/24 06:55:09;;;;;;;12.13;5.67;;;;;;;7.90;44.64;94968.02;1754420;81;21226;-58
2021/04/24 06:57:37;;;;;;;18.12;6.08;;;;;;;8.03;44.52;94970.28;1754412;81;21170;-60
2021/04/24 07:00:08;;;;;;;7.37;4.80;;;;;;;8.10;44.10;94960.52;1754489;81;21496;-60
2021/04/24 07:02:36;;;;;;;9.20;6.17;;;;;;;8.18;42.21;94963.33;1762766;81;21231;-58
2021/04/24 07:05:08;;;;;;;9.78;5.62;;;;;;;8.27;43.20;94969.59;1754385;81;21084;-58
2021/04/24 07:07:37;;;;;;;10.88;6.33;;;;;;;8.38;42.06;94981.06;1754664;81;22720;-59
2021/04/24 07:10:08;;;;;;;29.05;5.62;;;;;;;8.43;41.38;94962.14;1754338;81;21224;-58
2021/04/24 07:12:36;;;;;;;8.00;6.00;;;;;;;8.44;40.29;94976.63;1754394;81;21652;-58
2021/04/24 07:15:08;;;;;;;10.28;7.25;;;;;;;8.45;40.88;94972.69;1754521;81;21193;-59
2021/04/24 07:17:36;;;;;;;10.40;5.45;;;;;;;8.53;40.65;94970.72;1754508;81;21191;-60
2021/04/24 07:20:06;;;;;;;20.23;11.20;;;;;;;8.62;41.85;94966.77;1754372;81;21356;-58
2021/04/24 07:22:35;;;;;;;14.58;10.75;;;;;;;8.66;39.70;94963.33;1754286;81;21080;-57
2021/04/24 07:25:05;;;;;;;11.10;7.33;;;;;;;8.75;41.47;94969.00;1754396;81;21157;-59
2021/04/24 07:27:33;;;;;;;15.55;12.10;;;;;;;8.85;41.38;94961.11;1754364;81;21511;-60
2021/04/24 07:30:05;;;;;;;8.00;5.35;;;;;;;8.91;39.33;94964.88;1754390;81;21063;-57
2021/04/24 07:32:34;;;;;;;10.50;7.05;;;;;;;9.02;39.41;94957.12;1741466;82;21413;-61
2021/04/24 07:35:05;;;;;;;9.15;6.50;;;;;;;9.09;39.43;94937.12;1741542;82;21943;-60
2021/04/24 07:37:33;;;;;;;18.37;11.70;;;;;;;9.22;39.17;94942.69;1732129;82;21098;-58
2021/04/24 07:40:01;;;;;;;14.03;8.78;;;;;;;9.35;38.65;94944.27;1754353;81;21076;-59
2021/04/24 07:42:30;;;;;;;9.70;5.62;;;;;;;9.54;39.62;94938.44;1754430;81;21147;-60
2021/04/24 07:44:57;;;;;;;8.00;5.00;;;;;;;9.69;38.79;94934.87;1754364;81;21461;-58
2021/04/24 07:47:26;;;;;;;7.67;6.90;;;;;;;9.80;39.12;94934.56;1753910;81;21626;-59
2021/04/24 07:49:54;;;;;;;7.87;7.00;;;;;;;9.91;38.68;94944.61;1719294;82;21139;-58
2021/04/24 07:52:23;;;;;;;24.82;5.45;;;;;;;10.01;38.92;94922.92;1748816;82;21076;-58
2021/04/24 07:54:51;;;;;;;15.58;4.28;;;;;;;10.14;38.33;94927.86;1748790;81;21484;-60
2021/04/24 07:57:19;;;;;;;13.40;7.95;;;;;;;10.26;37.73;94924.33;1757021;81;22105;-60
2021/04/24 07:59:47;;;;;;;6.95;5.15;;;;;;;10.41;37.84;94917.17;1748612;82;21127;-57
2021/04/24 08:02:15;;;;;;;7.05;4.70;;;;;;;10.55;37.06;94926.35;1757009;81;21099;-59
2021/04/24 08:04:43;;;;;;;10.95;7.12;;;;;;;10.56;36.37;94933.39;1748628;82;21168;-61
2021/04/24 08:07:12;;;;;;;7.03;6.12;;;;;;;10.60;35.62;94933.45;1748695;82;21161;-57
2021/04/24 08:09:42;;;;;;;7.40;5.15;;;;;;;10.67;35.32;94928.30;1757065;81;21254;-58
2021/04/24 08:12:11;;;;;;;15.35;11.45;;;;;;;10.79;35.60;94918.66;1748786;82;21111;-57
2021/04/24 08:14:39;;;;;;;6.70;5.47;;;;;;;10.97;36.73;94919.59;1748801;81;21127;-57
2021/04/24 08:17:07;;;;;;;9.93;6.17;;;;;;;11.17;36.91;94918.70;1748747;81;21156;-57
2021/04/24 08:19:35;;;;;;;11.50;6.15;;;;;;;11.25;35.82;94910.95;1748932;82;21084;-58
2021/04/24 08:22:05;;;;;;;9.85;4.40;;;;;;;11.24;35.00;94910.80;1757079;81;21465;-59
2021/04/24 08:24:33;;;;;;;4.55;3.33;;;;;;;11.30;36.21;94915.29;1720633;81;21607;-61
2021/04/24 08:27:02;;;;;;;9.23;4.92;;;;;;;11.44;35.44;94923.06;1726053;83;21084;-61
2021/04/24 08:29:29;;;;;;;12.68;5.22;;;;;;;11.49;33.78;94920.34;1755106;81;21559;-60
2021/04/24 08:31:58;;;;;;;16.73;5.00;;;;;;;11.54;35.24;94920.52;1726199;83;21190;-57
2021/04/24 08:34:27;;;;;;;10.78;7.70;;;;;;;11.64;34.85;94925.50;1755226;81;21202;-59
2021/04/24 08:36:56;;;;;;;9.53;6.55;;;;;;;11.57;32.80;94926.53;1726097;83;21170;-59
2021/04/24 08:39:26;;;;;;;10.08;8.30;;;;;;;11.49;33.51;94932.12;1755146;81;21134;-57
2021/04/24 08:41:54;;;;;;;9.25;5.65;;;;;;;11.48;33.97;94927.83;1726182;83;21076;-59
2021/04/24 08:44:22;;;;;;;3.80;3.40;;;;;;;11.58;33.61;94926.72;1755476;81;21066;-58
2021/04/24 08:46:51;;;;;;;10.25;3.72;;;;;;;11.66;33.69;94918.34;1726254;83;21399;-58
2021/04/24 08:49:22;;;;;;;15.05;10.65;;;;;;;11.68;33.38;94917.91;1759606;81;21141;-57
2021/04/24 08:51:51;;;;;;;8.65;7.08;;;;;;;11.70;32.98;94923.10;1760418;81;21583;-57
2021/04/24 08:54:20;;;;;;;5.75;5.15;;;;;;;11.72;32.80;94912.39;1761861;81;21133;-57
2021/04/24 08:56:48;;;;;;;7.10;5.65;;;;;;;11.67;33.22;94914.36;1760491;81;21204;-57
2021/04/24 08:59:16;;;;;;;11.63;5.00;;;;;;;11.61;34.19;94912.63;1761783;81;21196;-58
2021/04/24 09:01:45;;;;;;;27.17;14.83;;;;;;;11.59;34.27;94913.09;1760419;81;21095;-57
2021/04/24 09:04:13;;;;;;;10.53;8.45;;;;;;;11.60;33.79;94913.26;1761844;81;21523;-56
2021/04/24 09:06:40;;;;;;;6.40;4.12;;;;;;;11.58;33.32;94908.80;1760368;81;21145;-55
2021/04/24 09:09:11;;;;;;;10.08;3.83;;;;;;;11.69;32.59;94905.03;1761780;81;21591;-58
2021/04/24 09:11:47;;;;;;;26.33;6.92;;;;;;;11.67;32.69;94906.09;1760421;81;21191;-59
2021/04/24 09:14:16;;;;;;;6.50;4.90;;;;;;;11.67;33.53;94905.31;1761719;81;21066;-56
2021/04/24 09:16:44;;;;;;;15.03;7.10;;;;;;;11.69;32.72;94896.77;1761860;81;21504;-58
2021/04/24 09:19:34;;;;;;;17.23;4.58;;;;;;;11.79;32.06;94887.34;1760405;81;21079;-57
2021/04/24 09:22:23;;;;;;;19.75;4.87;;;;;;;11.89;32.37;94883.40;1761646;81;21059;-58
2021/04/24 09:24:53;;;;;;;6.78;4.17;;;;;;;11.86;31.24;94883.55;1761914;81;22097;-58
2021/04/24 09:27:47;;;;;;;21.90;5.45;;;;;;;11.78;32.15;94883.65;1761857;81;21491;-59
2021/04/24 09:30:19;;;;;;;10.80;3.60;;;;;;;11.74;33.10;94884.40;1760445;81;21560;-58
2021/04/24 09:32:48;;;;;;;4.45;3.20;;;;;;;11.63;32.06;94873.77;1761980;80;21570;-60
2021/04/24 09:35:20;;;;;;;6.87;3.47;;;;;;;11.53;32.43;94874.89;1760563;81;21491;-61
2021/04/24 09:38:01;;;;;;;9.45;3.77;;;;;;;11.51;32.58;94877.33;1761902;81;22259;-60
2021/04/24 09:40:29;;;;;;;20.92;4.40;;;;;;;11.50;32.06;94882.69;1761399;81;21145;-59
2021/04/24 09:43:06;;;;;;;17.10;4.37;;;;;;;11.47;33.16;94879.45;1760409;81;21159;-57
2021/04/24 09:45:41;;;;;;;11.85;5.60;;;;;;;11.40;32.59;94871.46;1761799;81;21066;-57
2021/04/24 09:48:25;;;;;;;12.68;3.15;;;;;;;11.46;33.47;94873.00;1761638;81;21067;-57
2021/04/24 09:50:54;;;;;;;11.48;4.65;;;;;;;11.58;32.45;94866.69;1742591;82;22035;-60
2021/04/24 09:53:26;;;;;;;8.73;3.80;;;;;;;11.83;32.86;94865.92;1761488;81;21491;-57
2021/04/24 09:55:54;;;;;;;15.23;3.90;;;;;;;11.95;32.24;94873.34;1742834;82;21127;-57
2021/04/24 09:58:32;;;;;;;13.03;3.72;;;;;;;11.94;32.56;94875.91;1761585;81;21060;-60
2021/04/24 10:01:31;;;;;;;13.50;3.70;;;;;;;11.99;32.11;94871.20;1761479;81;21114;-56
2021/04/24 10:04:00;;;;;;;9.23;3.55;;;;;;;12.01;32.46;94871.52;1742496;82;21216;-59
2021/04/24 10:06:41;;;;;;;17.27;5.53;;;;;;;12.14;32.00;94877.72;1761369;81;21161;-58
2021/04/24 10:09:17;;;;;;;36.75;6.97;;;;;;;12.15;32.47;94872.35;1742520;82;21146;-58
2021/04/24 10:11:55;;;;;;;6.35;4.08;;;;;;;12.06;32.12;94869.55;1761466;81;21078;-57
2021/04/24 10:14:45;;;;;;;7.70;3.50;;;;;;;11.90;32.34;94861.50;1742583;82;21071;-60
2021/04/24 10:17:18;;;;;;;50.58;7.55;;;;;;;11.86;31.76;94869.15;1761561;81;21504;-58
2021/04/24 10:19:48;;;;;;;8.05;4.50;;;;;;;11.91;32.68;94867.17;1742589;82;21209;-57
2021/04/24 10:22:19;;;;;;;9.68;4.05;;;;;;;11.98;32.32;94867.52;1761493;81;21126;-59
2021/04/24 10:24:46;;;;;;;9.75;4.62;;;;;;;12.01;33.41;94867.39;1742500;82;21614;-58
2021/04/24 10:27:16;;;;;;;30.92;6.25;;;;;;;11.97;33.32;94852.98;1761418;81;21581;-57
2021/04/24 10:29:45;;;;;;;8.98;3.58;;;;;;;12.19;33.01;94868.84;1742566;82;21159;-57
2021/04/24 10:32:13;;;;;;;10.00;4.25;;;;;;;12.29;32.57;94859.36;1761449;81;21090;-59
2021/04/24 10:34:41;;;;;;;13.08;4.00;;;;;;;12.46;32.76;94867.53;1742507;82;21107;-58
2021/04/24 10:37:10;;;;;;;7.40;3.47;;;;;;;12.54;32.14;94869.55;1761424;81;21087;-57
2021/04/24 10:39:39;;;;;;;14.43;3.95;;;;;;;12.52;32.50;94860.21;1742490;82;21158;-59
2021/04/24 10:42:21;;;;;;;19.87;8.80;;;;;;;12.53;32.58;94864.50;1761418;81;21933;-59
2021/04/24 10:45:01;;;;;;;15.50;6.92;;;;;;;12.54;32.17;94867.42;1742353;82;21198;-57
2021/04/24 10:47:43;;;;;;;27.02;5.55;;;;;;;12.52;32.79;94865.73;1761418;81;21087;-57
2021/04/24 10:50:18;;;;;;;15.93;5.15;;;;;;;12.49;32.21;94867.25;1739805;82;28272;-59
2021/04/24 10:52:46;;;;;;;6.00;4.17;;;;;;;12.49;33.41;94865.23;1738738;82;21099;-59
2021/04/24 10:55:18;;;;;;;15.40;6.65;;;;;;;12.50;32.55;94866.80;1769693;81;22032;-59
2021/04/24 10:58:02;;;;;;;10.13;6.40;;;;;;;12.53;32.38;94864.50;1768349;81;21182;-59
2021/04/24 11:00:37;;;;;;;;;;;;;;;12.48;31.77;94870.60;1709818;84;21108;-57
2021/04/24 11:03:05;;;;;;;12.88;5.92;;;;;;;12.44;32.92;94858.19;1707326;84;20222;-59
2021/04/24 11:05:42;;;;;;;14.65;3.90;;;;;;;12.58;32.47;94872.95;1691050;84;21091;-57
2021/04/24 11:08:21;;;;;;;7.97;3.80;;;;;;;12.68;32.52;94870.98;1707312;84;22641;-59
2021/04/24 11:11:11;;;;;;;6.28;4.00;;;;;;;12.50;32.63;94880.59;1707252;84;21221;-58
2021/04/24 11:13:45;;;;;;;11.33;4.47;;;;;;;12.27;33.44;94859.05;1707386;84;21568;-58
2021/04/24 11:16:17;;;;;;;13.80;4.90;;;;;;;12.08;33.77;94868.47;1707219;84;21079;-60
2021/04/24 11:18:48;;;;;;;18.52;4.45;;;;;;;11.95;33.33;94871.96;1707433;84;21497;-59
2021/04/24 11:21:22;;;;;;;17.60;4.78;;;;;;;11.95;33.75;94874.72;1707324;83;21203;-59
2021/04/24 11:23:59;;;;;;;13.08;5.35;;;;;;;12.05;33.79;94862.50;1707263;84;21167;-57
2021/04/24 11:26:42;;;;;;;12.20;5.30;;;;;;;12.17;34.13;94867.75;1700993;83;21178;-57
2021/04/24 11:29:17;;;;;;;15.50;5.55;;;;;;;12.30;34.50;94865.66;1707430;84;21075;-58
2021/04/24 11:31:53;;;;;;;12.30;5.58;;;;;;;12.43;33.36;94871.84;1690879;84;21075;-57
2021/04/24 11:34:39;;;;;;;5.70;4.08;;;;;;;12.40;32.74;94873.50;1707365;84;21205;-58
2021/04/24 11:37:24;;;;;;;7.47;4.72;;;;;;;12.37;32.73;94867.52;1707169;84;21163;-57
2021/04/24 11:40:27;;;;;;;11.78;5.78;;;;;;;12.45;33.04;94878.41;1707275;84;21102;-59
2021/04/24 11:43:04;;;;;;;6.47;4.15;;;;;;;12.50;32.89;94879.22;1738338;81;21064;-58